createdAt,value
2022-10-14T00:00:33.717Z,9.43
2022-10-14T00:05:39.953Z,9.43
2022-10-14T00:10:42.200Z,9.12
2022-10-14T00:15:43.750Z,9.13
2022-10-14T00:20:54.347Z,9.12
2022-10-14T00:25:55.926Z,9.00
2022-10-14T00:31:02.448Z,9.22
2022-10-14T00:36:05.829Z,9.49
2022-10-14T00:41:12.907Z,9.48
2022-10-14T00:46:17.678Z,9.53
2022-10-14T00:51:20.382Z,9.61
2022-10-14T00:56:28.705Z,9.73
2022-10-14T01:01:30.406Z,9.82
2022-10-14T01:06:50.147Z,9.83
2022-10-14T01:17:47.766Z,9.81
2022-10-14T01:23:28.222Z,9.80
2022-10-14T01:28:54.446Z,9.90
2022-10-14T01:33:59.864Z,9.88
2022-10-14T01:39:23.796Z,9.87
2022-10-14T01:44:28.099Z,9.88
2022-10-14T01:49:35.445Z,9.89
2022-10-14T01:54:43.068Z,9.93
2022-10-14T01:59:46.611Z,10.00
2022-10-14T02:04:48.173Z,10.28
2022-10-14T02:10:03.231Z,10.31
2022-10-14T02:15:30.568Z,10.12
2022-10-14T02:20:37.834Z,10.05
2022-10-14T02:25:45.210Z,10.05
2022-10-14T02:30:54.035Z,10.05
2022-10-14T02:35:56.519Z,10.11
2022-10-14T02:41:01.787Z,10.36
2022-10-14T02:46:04.703Z,10.35
2022-10-14T02:51:06.779Z,10.16
2022-10-14T02:56:10.294Z,10.09
2022-10-14T03:01:11.953Z,10.07
2022-10-14T03:06:14.113Z,10.01
2022-10-14T03:11:16.387Z,10.08
2022-10-14T03:16:19.090Z,10.11
2022-10-14T03:21:20.767Z,10.18
2022-10-14T03:26:23.893Z,10.42
2022-10-14T03:31:26.736Z,10.34
2022-10-14T03:36:46.972Z,10.14
2022-10-14T03:41:48.853Z,10.08
2022-10-14T03:46:55.238Z,10.08
2022-10-14T03:52:04.652Z,10.28
2022-10-14T03:57:09.477Z,10.41
2022-10-14T04:02:19.304Z,10.43
2022-10-14T04:07:21.175Z,10.24
2022-10-14T04:12:28.515Z,10.17
2022-10-14T04:17:41.718Z,10.13
2022-10-14T04:22:48.030Z,10.17
2022-10-14T04:27:52.088Z,10.26
2022-10-14T04:32:54.592Z,10.29
2022-10-14T04:37:56.441Z,10.24
2022-10-14T04:43:02.001Z,10.11
2022-10-14T04:48:12.693Z,10.06
2022-10-14T04:53:21.961Z,10.06
2022-10-14T04:58:36.657Z,10.10
2022-10-14T05:03:38.412Z,10.21
2022-10-14T05:08:39.995Z,10.14
2022-10-14T05:13:44.672Z,10.19
2022-10-14T05:18:46.361Z,10.14
2022-10-14T05:23:48.886Z,10.17
2022-10-14T05:28:54.309Z,10.28
2022-10-14T05:33:56.534Z,10.31
2022-10-14T05:38:59.153Z,10.31
2022-10-14T05:44:07.226Z,10.29
2022-10-14T05:49:11.475Z,10.30
2022-10-14T05:54:13.891Z,10.26
2022-10-14T05:59:17.670Z,10.26
2022-10-14T06:04:21.070Z,10.52
2022-10-14T06:09:23.378Z,10.51
2022-10-14T06:14:24.998Z,10.63
2022-10-14T06:19:27.257Z,10.66
2022-10-14T06:24:28.785Z,10.79
2022-10-14T06:29:37.673Z,10.92
2022-10-14T06:34:39.231Z,11.26
2022-10-14T06:39:42.835Z,11.20
2022-10-14T06:44:44.387Z,11.18
2022-10-14T06:49:46.059Z,11.35
2022-10-14T06:54:48.526Z,11.34
2022-10-14T06:59:50.232Z,11.61
2022-10-14T07:04:51.869Z,11.71
2022-10-14T07:09:54.169Z,11.79
2022-10-14T07:14:56.342Z,11.98
2022-10-14T07:19:58.541Z,12.17
2022-10-14T07:25:00.191Z,12.15
2022-10-14T07:30:01.772Z,12.25
2022-10-14T07:35:04.095Z,12.45
2022-10-14T07:40:06.292Z,12.56
2022-10-14T07:45:09.176Z,12.65
2022-10-14T07:50:11.487Z,12.87
2022-10-14T07:55:13.099Z,13.11
2022-10-14T08:00:14.709Z,13.22
2022-10-14T08:05:36.965Z,13.32
2022-10-14T08:10:38.786Z,13.33
2022-10-14T08:15:42.667Z,13.46
2022-10-14T08:20:44.234Z,13.56
2022-10-14T08:25:49.475Z,13.58
2022-10-14T08:30:52.812Z,13.44
2022-10-14T08:35:54.442Z,13.47
2022-10-14T08:41:16.535Z,13.40
2022-10-14T08:46:26.397Z,13.65
2022-10-14T08:51:30.597Z,14.05
2022-10-14T08:56:35.041Z,14.27
2022-10-14T09:02:08.580Z,14.32
2022-10-14T09:07:17.589Z,14.41
2022-10-14T09:12:32.065Z,14.45
2022-10-14T09:17:44.272Z,14.52
2022-10-14T09:22:57.430Z,14.39
2022-10-14T09:27:59.002Z,14.81
2022-10-14T09:33:00.971Z,14.62
2022-10-14T09:38:02.561Z,14.66
2022-10-14T09:43:10.237Z,15.00
2022-10-14T09:48:17.383Z,15.09
2022-10-14T09:53:23.427Z,15.53
2022-10-14T09:58:32.040Z,16.05
2022-10-14T10:03:39.855Z,16.20
2022-10-14T10:08:56.028Z,16.70
2022-10-14T10:13:58.094Z,17.75
2022-10-14T10:19:20.532Z,17.97
2022-10-14T10:24:26.129Z,17.73
2022-10-14T10:29:32.477Z,17.58
2022-10-14T10:35:01.803Z,17.27
2022-10-14T10:40:28.681Z,16.97
2022-10-14T10:45:50.841Z,17.03
2022-10-14T10:51:02.082Z,16.88
2022-10-14T10:56:15.812Z,16.61
2022-10-14T11:01:48.647Z,16.47
2022-10-14T11:07:09.185Z,17.12
2022-10-14T11:12:23.106Z,17.70
2022-10-14T11:17:41.478Z,17.46
2022-10-14T11:23:27.456Z,17.17
2022-10-14T11:29:06.694Z,16.98
2022-10-14T11:34:24.327Z,16.74
2022-10-14T11:39:25.848Z,16.79
2022-10-14T11:44:36.403Z,16.89
2022-10-14T11:50:18.324Z,16.95
2022-10-14T11:55:28.833Z,17.10
2022-10-14T12:01:08.642Z,17.13
2022-10-14T12:06:19.193Z,17.21
2022-10-14T12:11:26.695Z,17.26
2022-10-14T12:16:28.806Z,16.88
2022-10-14T12:21:40.727Z,16.73
2022-10-14T12:26:47.143Z,16.85
2022-10-14T12:32:05.208Z,16.87
2022-10-14T12:37:38.308Z,17.06
2022-10-14T12:42:57.677Z,17.06
2022-10-14T12:48:07.508Z,17.23
2022-10-14T12:53:37.371Z,17.42
2022-10-14T12:58:51.522Z,17.20
2022-10-14T13:03:57.464Z,17.45
2022-10-14T13:09:17.099Z,17.40
2022-10-14T13:14:26.109Z,17.66
2022-10-14T13:19:33.912Z,17.47
2022-10-14T13:24:41.634Z,17.68
2022-10-14T13:30:05.736Z,17.32
2022-10-14T13:35:14.956Z,17.25
2022-10-14T13:40:20.712Z,17.33
2022-10-14T13:45:31.016Z,17.07
2022-10-14T13:50:36.851Z,16.93
2022-10-14T13:55:51.634Z,17.00
2022-10-14T14:00:57.438Z,17.05
2022-10-14T14:06:00.647Z,17.18
2022-10-14T14:11:16.312Z,16.98
2022-10-14T14:16:21.577Z,17.15
2022-10-14T14:21:27.061Z,17.08
2022-10-14T14:26:37.343Z,16.95
2022-10-14T14:32:04.985Z,16.85
2022-10-14T14:37:11.044Z,16.98
2022-10-14T14:42:25.790Z,16.65
2022-10-14T14:47:29.045Z,16.58
2022-10-14T14:52:31.184Z,17.01
2022-10-14T14:57:32.817Z,16.91
2022-10-14T15:02:35.060Z,16.73
2022-10-14T15:07:37.272Z,16.61
2022-10-14T15:12:41.968Z,16.62
2022-10-14T15:17:47.593Z,16.79
2022-10-14T15:22:49.900Z,16.39
2022-10-14T15:27:57.789Z,16.15
2022-10-14T15:33:21.281Z,16.37
2022-10-14T15:38:23.248Z,15.93
2022-10-14T15:43:27.088Z,15.87
2022-10-14T15:48:31.311Z,16.04
2022-10-14T15:53:33.885Z,15.77
2022-10-14T15:58:35.453Z,15.65
2022-10-14T16:03:40.884Z,15.67
2022-10-14T16:08:46.544Z,15.45
2022-10-14T16:13:50.192Z,15.26
2022-10-14T16:18:52.492Z,15.15
2022-10-14T16:23:54.495Z,14.97
2022-10-14T16:28:56.371Z,15.02
2022-10-14T16:33:57.977Z,15.06
2022-10-14T16:39:01.749Z,15.10
2022-10-14T16:44:05.058Z,14.93
2022-10-14T16:49:07.987Z,14.69
2022-10-14T16:54:10.243Z,14.77
2022-10-14T16:59:13.269Z,14.78
2022-10-14T17:04:15.394Z,14.81
2022-10-14T17:09:18.314Z,14.54
2022-10-14T17:14:23.002Z,14.31
2022-10-14T17:19:24.831Z,14.09
2022-10-14T17:24:26.764Z,14.20
2022-10-14T17:29:29.449Z,14.13
2022-10-14T17:34:31.955Z,14.07
2022-10-14T17:39:37.570Z,14.06
2022-10-14T17:44:43.372Z,14.12
2022-10-14T17:49:45.492Z,13.98
2022-10-14T17:54:47.071Z,14.05
2022-10-14T17:59:49.026Z,13.90
2022-10-14T18:04:50.610Z,13.94
2022-10-14T18:09:52.253Z,13.75
2022-10-14T18:14:54.357Z,13.68
2022-10-14T18:19:55.915Z,13.67
2022-10-14T18:24:57.485Z,13.49
2022-10-14T18:30:00.746Z,13.47
2022-10-14T18:35:06.764Z,13.62
2022-10-14T18:40:09.203Z,13.26
2022-10-14T18:45:10.881Z,13.28
2022-10-14T18:50:12.428Z,13.06
2022-10-14T18:55:14.085Z,12.95
2022-10-14T19:00:16.343Z,12.97
2022-10-14T19:05:18.170Z,12.94
2022-10-14T19:10:21.239Z,13.01
2022-10-14T19:15:26.280Z,13.03
2022-10-14T19:20:27.899Z,13.06
2022-10-14T19:25:29.812Z,13.10
2022-10-14T19:30:31.711Z,13.05
2022-10-14T19:35:33.341Z,12.89
2022-10-14T19:40:36.452Z,12.97
2022-10-14T19:45:40.630Z,13.03
2022-10-14T19:50:42.373Z,13.02
2022-10-14T19:55:44.149Z,13.01
2022-10-14T20:00:45.699Z,13.02
2022-10-14T20:05:47.244Z,13.09
2022-10-14T20:10:48.839Z,13.11
2022-10-14T20:16:00.245Z,13.22
2022-10-14T20:21:03.639Z,13.13
2022-10-14T20:26:12.480Z,13.15
2022-10-14T20:31:17.266Z,13.18
2022-10-14T20:36:21.487Z,13.08
2022-10-14T20:41:25.605Z,13.16
2022-10-14T20:46:27.199Z,13.27
2022-10-14T20:51:29.264Z,13.31
2022-10-14T20:56:31.923Z,13.28
2022-10-14T21:01:35.439Z,13.20
2022-10-14T21:06:38.822Z,13.30
2022-10-14T21:11:41.683Z,13.25
2022-10-14T21:16:43.786Z,13.13
2022-10-14T21:21:45.542Z,13.20
2022-10-14T21:26:51.869Z,13.16
2022-10-14T21:31:53.402Z,12.98
2022-10-14T21:36:55.027Z,13.16
2022-10-14T21:41:57.225Z,13.30
2022-10-14T21:46:58.909Z,13.37
2022-10-14T21:52:00.814Z,13.26
2022-10-14T21:57:02.413Z,13.32
2022-10-14T22:02:03.987Z,13.08
2022-10-14T22:07:06.584Z,13.18
2022-10-14T22:12:08.148Z,13.11
2022-10-14T22:17:09.807Z,13.25
2022-10-14T22:22:11.360Z,13.21
2022-10-14T22:27:12.935Z,13.36
2022-10-14T22:32:14.465Z,13.18
2022-10-14T22:37:16.030Z,13.25
2022-10-14T22:42:17.639Z,13.22
2022-10-14T22:47:19.298Z,13.12
2022-10-14T22:52:21.016Z,13.06
2022-10-14T22:57:22.791Z,13.02
2022-10-14T23:02:24.685Z,13.02
2022-10-14T23:07:28.866Z,13.22
2022-10-14T23:12:30.500Z,13.00
2022-10-14T23:17:32.179Z,12.96
2022-10-14T23:22:34.267Z,12.90
2022-10-14T23:27:36.425Z,13.01
2022-10-14T23:32:38.448Z,13.05
2022-10-14T23:37:40.068Z,13.03
2022-10-14T23:42:42.077Z,13.20
2022-10-14T23:47:43.677Z,13.17
2022-10-14T23:52:45.993Z,13.14
2022-10-14T23:57:47.607Z,13.19
